Terminal Aerodrome Forecast
Issued by NWS

Home | Current Version | Previous Version | Text Only | Print | Product List | Glossary On
Versions: 1 2 3 4 5 6 7 8 9 10 11 12 13 14 15 16 17
000
FTUS43 KPAH 301529 AAA
TAFCGI
TAF AMD
KCGI 301529Z 3015/3112 15007KT P6SM SCT008 BKN100
      TEMPO 3015/3017 BKN008
     FM310000 VRB03KT P6SM SCT070 BKN150=

USA.gov is the U.S. government's official web portal to all federal, state and local government web resources and services.